Time;durP1;ratioP1;P1;durP2;ratioP2;P2;SDS_P1;SDS_P2;PMS_P1;PMS_P2;Temp;Humidity;BMP_temperature;BMP_pressure;BME280_temperature;BME280_humidity;BME280_pressure;Samples;Min_cycle;Max_cycle;Signal;HPM_P1;HPM_P2
2022/08/04 00:02:24;;;;;;;9.80;6.40;;;;;;;20.75;68.28;100213.44;4160993;28;20488;-66
2022/08/04 00:04:59;;;;;;;9.97;6.60;;;;;;;20.66;68.86;100210.97;4162163;28;22981;-67
2022/08/04 00:07:52;;;;;;;9.97;6.20;;;;;;;20.64;68.94;100217.66;4171976;28;20680;-65
2022/08/04 00:10:21;;;;;;;9.20;6.07;;;;;;;20.68;69.04;100216.19;4171184;28;20378;-66
2022/08/04 00:12:50;;;;;;;13.00;6.10;;;;;;;20.66;68.62;100218.28;4163932;28;23250;-66
2022/08/04 00:15:17;;;;;;;9.03;5.97;;;;;;;20.70;68.36;100218.66;4162992;28;20241;-67
2022/08/04 00:17:48;;;;;;;12.97;6.40;;;;;;;20.60;68.41;100217.28;4149208;28;20912;-67
2022/08/04 00:20:17;;;;;;;7.33;5.90;;;;;;;20.59;68.33;100221.00;4188038;28;22572;-66
2022/08/04 00:22:45;;;;;;;9.17;5.83;;;;;;;20.57;68.56;100223.09;4170551;28;20422;-67
2022/08/04 00:25:12;;;;;;;10.70;5.60;;;;;;;20.51;68.83;100213.13;4171082;28;21788;-64
2022/08/04 00:27:39;;;;;;;9.67;5.53;;;;;;;20.56;68.51;100218.75;4173959;28;20239;-65
2022/08/04 00:30:06;;;;;;;8.10;5.87;;;;;;;20.59;68.75;100218.31;4187994;28;20337;-65
2022/08/04 00:32:33;;;;;;;6.90;5.47;;;;;;;20.46;69.16;100223.72;4171822;28;20341;-64
2022/08/04 00:35:00;;;;;;;10.93;5.77;;;;;;;20.41;69.81;100212.75;4168109;28;20280;-66
2022/08/04 00:37:27;;;;;;;13.73;5.23;;;;;;;20.50;68.79;100219.56;4174155;28;20249;-65
2022/08/04 00:39:55;;;;;;;10.40;5.70;;;;;;;20.40;69.02;100219.22;4160398;28;20233;-67
2022/08/04 00:42:42;;;;;;;9.70;5.50;;;;;;;20.37;69.45;100223.16;4172503;28;21584;-65
2022/08/04 00:45:24;;;;;;;11.90;5.20;;;;;;;20.36;68.89;100216.09;4184545;28;20242;-64
2022/08/04 00:48:13;;;;;;;8.83;5.20;;;;;;;20.40;69.06;100221.91;4165310;28;21769;-65
2022/08/04 00:50:44;;;;;;;7.77;5.33;;;;;;;20.44;68.88;100215.03;4165966;28;21659;-69
2022/08/04 00:53:18;;;;;;;8.90;5.17;;;;;;;20.33;69.36;100226.50;4173357;28;20238;-65
2022/08/04 00:56:17;;;;;;;10.20;5.30;;;;;;;20.32;69.42;100220.28;4173412;28;20242;-65
2022/08/04 00:59:02;;;;;;;9.03;5.20;;;;;;;20.26;69.45;100220.31;4181437;28;20239;-66
2022/08/04 01:01:48;;;;;;;7.10;5.07;;;;;;;20.17;70.46;100225.13;4172084;28;20261;-69
2022/08/04 01:04:41;;;;;;;9.53;5.23;;;;;;;20.17;69.82;100220.53;4169567;28;20629;-66
2022/08/04 01:07:21;;;;;;;7.60;5.00;;;;;;;20.19;69.71;100226.56;4167362;28;20245;-67
2022/08/04 01:10:09;;;;;;;8.40;5.10;;;;;;;20.17;69.77;100223.22;4150061;28;20310;-66
2022/08/04 01:13:10;;;;;;;6.90;5.13;;;;;;;20.08;70.32;100223.69;4180808;28;21732;-66
2022/08/04 01:16:01;;;;;;;11.87;5.50;;;;;;;20.08;69.58;100224.50;4162440;28;25692;-65
2022/08/04 01:18:55;;;;;;;8.77;4.60;;;;;;;20.07;69.94;100225.56;4175530;28;20234;-66
2022/08/04 01:21:54;;;;;;;14.20;4.50;;;;;;;20.01;69.70;100227.22;4169531;28;20238;-68
2022/08/04 01:24:27;;;;;;;6.07;4.60;;;;;;;20.11;68.83;100228.66;4174255;28;25928;-66
2022/08/04 01:27:01;;;;;;;10.77;4.67;;;;;;;20.12;69.48;100233.84;4168188;28;20286;-65
2022/08/04 01:29:49;;;;;;;9.97;4.53;;;;;;;20.14;68.34;100229.06;4169276;28;20241;-65
2022/08/04 01:32:22;;;;;;;10.67;4.97;;;;;;;20.12;68.31;100235.72;4177955;28;20238;-68
2022/08/04 01:34:56;;;;;;;7.60;4.50;;;;;;;20.02;68.99;100230.78;4166551;28;21625;-65
2022/08/04 01:37:56;;;;;;;7.37;4.47;;;;;;;20.02;68.93;100230.78;4158786;28;21401;-65
2022/08/04 01:40:25;;;;;;;9.00;4.23;;;;;;;20.05;68.67;100237.63;4157420;28;20239;-69
2022/08/04 01:42:52;;;;;;;8.60;4.50;;;;;;;19.95;68.77;100235.38;4175981;28;21407;-68
2022/08/04 01:45:19;;;;;;;5.77;3.90;;;;;;;19.97;68.46;100233.25;4167912;28;20275;-68
2022/08/04 01:47:51;;;;;;;5.83;4.40;;;;;;;20.01;67.58;100234.50;4153591;28;20296;-67
2022/08/04 01:50:17;;;;;;;12.07;4.40;;;;;;;20.04;67.55;100223.25;4169462;28;20309;-67
2022/08/04 01:52:44;;;;;;;8.83;4.27;;;;;;;20.07;67.23;100233.66;4175260;28;20245;-65
2022/08/04 01:55:17;;;;;;;8.03;4.10;;;;;;;20.16;66.98;100236.97;4168052;28;21766;-68
2022/08/04 01:57:48;;;;;;;7.53;4.00;;;;;;;20.19;66.36;100236.53;4171198;28;20238;-66
2022/08/04 02:00:20;;;;;;;4.53;3.57;;;;;;;20.22;65.73;100233.41;4166657;28;20316;-68
2022/08/04 02:02:48;;;;;;;4.83;3.70;;;;;;;20.22;65.37;100228.00;4178866;28;20234;-66
2022/08/04 02:05:16;;;;;;;6.43;3.90;;;;;;;20.23;65.56;100232.38;4167511;28;20313;-67
2022/08/04 02:08:04;;;;;;;10.77;3.97;;;;;;;20.20;65.75;100228.19;4162385;28;20398;-66
2022/08/04 02:11:03;;;;;;;6.77;3.90;;;;;;;20.25;65.24;100227.56;4154604;28;26384;-66
2022/08/04 02:13:52;;;;;;;7.50;3.63;;;;;;;20.23;64.85;100226.97;4172689;28;20293;-68
2022/08/04 02:16:28;;;;;;;7.13;3.30;;;;;;;20.21;64.67;100216.38;4165006;28;20380;-68
2022/08/04 02:19:03;;;;;;;7.77;4.30;;;;;;;20.14;65.13;100223.66;4166654;28;20238;-67
2022/08/04 02:21:30;;;;;;;7.63;3.63;;;;;;;20.15;65.23;100221.78;4169181;28;22826;-65
2022/08/04 02:24:13;;;;;;;6.27;3.87;;;;;;;20.09;65.44;100211.81;4158251;28;20234;-67
2022/08/04 02:26:42;;;;;;;5.80;4.00;;;;;;;20.06;65.44;100213.09;4173902;28;20246;-68
2022/08/04 02:29:34;;;;;;;5.30;4.13;;;;;;;20.13;65.51;100210.38;4171898;28;20265;-68
2022/08/04 02:32:06;;;;;;;5.37;3.83;;;;;;;19.99;65.33;100210.44;4175126;28;20321;-69
2022/08/04 02:34:44;;;;;;;5.23;3.67;;;;;;;20.08;64.74;100218.28;4171531;28;20238;-66
2022/08/04 02:37:11;;;;;;;8.50;3.70;;;;;;;20.05;64.49;100214.13;4157733;28;20238;-67
2022/08/04 02:39:41;;;;;;;7.67;3.73;;;;;;;20.06;64.98;100215.78;4180865;28;21305;-64
2022/08/04 02:42:15;;;;;;;5.97;4.00;;;;;;;19.96;64.91;100204.59;4151854;28;20235;-69
2022/08/04 02:44:42;;;;;;;11.57;3.97;;;;;;;20.01;65.01;100208.31;4166672;28;20306;-66
2022/08/04 02:47:09;;;;;;;5.87;3.20;;;;;;;20.00;65.57;100206.66;4168143;28;21256;-67
2022/08/04 02:49:36;;;;;;;6.23;3.77;;;;;;;19.99;65.28;100210.44;4169943;28;20247;-64
2022/08/04 02:52:09;;;;;;;5.37;3.57;;;;;;;19.82;65.83;100201.09;4161370;28;20250;-65
2022/08/04 02:54:44;;;;;;;7.83;4.13;;;;;;;19.90;65.84;100205.44;4175663;28;20235;-66
2022/08/04 02:57:11;;;;;;;5.63;4.03;;;;;;;19.94;65.50;100210.22;4180169;28;20252;-68
2022/08/04 02:59:57;;;;;;;6.10;3.43;;;;;;;19.82;65.76;100209.22;4159725;28;20518;-67
2022/08/04 03:02:46;;;;;;;5.10;3.70;;;;;;;19.77;66.23;100201.75;4167249;28;20240;-67
2022/08/04 03:05:17;;;;;;;8.07;3.70;;;;;;;19.82;66.06;100220.00;4190736;28;25468;-66
2022/08/04 03:07:55;;;;;;;6.17;4.10;;;;;;;19.84;65.75;100217.09;4175575;28;20234;-67
2022/08/04 03:10:22;;;;;;;8.13;3.93;;;;;;;19.78;65.91;100225.00;4173259;28;21070;-67
2022/08/04 03:13:20;;;;;;;8.10;3.87;;;;;;;19.75;66.45;100222.72;4171321;28;21855;-65
2022/08/04 03:16:04;;;;;;;7.57;3.47;;;;;;;19.86;66.23;100213.16;4169254;28;20246;-66
2022/08/04 03:18:46;;;;;;;6.73;3.90;;;;;;;19.79;66.01;100228.53;4167739;28;21186;-69
2022/08/04 03:21:44;;;;;;;6.87;3.70;;;;;;;19.75;66.26;100225.41;4179953;28;20627;-67
2022/08/04 03:24:53;;;;;;;6.70;3.90;;;;;;;19.81;65.88;100230.00;4180600;28;20462;-64
2022/08/04 03:27:36;;;;;;;12.83;3.80;;;;;;;19.86;66.16;100233.94;4164310;28;20254;-66
2022/08/04 03:30:05;;;;;;;6.17;3.57;;;;;;;19.88;65.76;100229.13;4141910;28;20333;-69
2022/08/04 03:32:44;;;;;;;7.57;3.23;;;;;;;19.84;65.84;100233.31;4154154;28;20430;-66
2022/08/04 03:35:52;;;;;;;10.17;4.27;;;;;;;19.71;66.40;100236.84;4175092;28;22397;-66
2022/08/04 03:38:28;;;;;;;7.10;3.83;;;;;;;19.73;66.34;100235.59;4184646;28;20770;-66
2022/08/04 03:41:08;;;;;;;12.20;3.83;;;;;;;19.84;65.39;100238.72;4178456;28;22309;-68
2022/08/04 03:43:50;;;;;;;10.47;4.00;;;;;;;19.81;65.45;100235.38;4163662;28;23317;-66
2022/08/04 03:46:43;;;;;;;7.07;3.63;;;;;;;19.77;65.39;100238.72;4199400;28;20249;-68
2022/08/04 03:49:39;;;;;;;10.47;3.87;;;;;;;19.80;65.91;100244.50;4174342;28;22295;-65
2022/08/04 03:55:44;;;;;;;8.20;3.67;;;;;;;19.78;65.86;100243.91;4172954;28;20243;-66
2022/08/04 03:58:33;;;;;;;6.27;3.43;;;;;;;19.78;66.05;100243.91;4177868;28;20383;-68
2022/08/04 04:01:33;;;;;;;10.73;3.70;;;;;;;19.81;65.92;100246.19;4174739;28;20238;-66
2022/08/04 04:04:22;;;;;;;8.53;3.73;;;;;;;19.74;66.85;100244.53;4153747;28;20259;-71
2022/08/04 04:07:20;;;;;;;8.30;3.70;;;;;;;19.79;66.12;100247.44;4168398;28;20284;-64
2022/08/04 04:10:32;;;;;;;6.93;3.50;;;;;;;19.73;66.96;100243.69;4156652;28;20241;-66
2022/08/04 04:13:14;;;;;;;12.40;4.27;;;;;;;19.79;65.79;100250.13;4171327;28;20979;-66
2022/08/04 04:15:50;;;;;;;7.13;3.60;;;;;;;19.91;65.03;100253.84;4166512;28;20230;-66
2022/08/04 04:18:47;;;;;;;9.47;4.03;;;;;;;19.92;65.12;100255.50;4163074;28;21111;-65
2022/08/04 04:21:33;;;;;;;10.43;3.70;;;;;;;19.92;65.08;100254.69;4188814;28;20230;-66
2022/08/04 04:24:34;;;;;;;11.70;3.70;;;;;;;20.03;64.56;100249.47;4188015;28;22877;-68
2022/08/04 04:27:08;;;;;;;9.40;3.60;;;;;;;20.04;64.09;100250.28;4174992;28;21830;-67
2022/08/04 04:30:11;;;;;;;9.17;3.50;;;;;;;20.12;64.15;100249.25;4168357;28;21161;-67
2022/08/04 04:32:57;;;;;;;10.03;3.63;;;;;;;20.16;63.47;100253.19;4186420;28;20249;-67
2022/08/04 04:35:33;;;;;;;6.10;3.40;;;;;;;20.13;63.70;100254.41;4169633;28;20244;-69
2022/08/04 04:38:00;;;;;;;16.60;4.00;;;;;;;20.27;63.02;100257.91;4171677;28;22102;-66
2022/08/04 04:40:55;;;;;;;10.47;3.80;;;;;;;20.31;62.88;100261.84;4164979;28;20239;-69
2022/08/04 04:43:31;;;;;;;8.50;3.53;;;;;;;20.45;62.18;100258.06;4166235;28;20353;-67
2022/08/04 04:46:38;;;;;;;11.77;3.73;;;;;;;20.45;62.37;100257.22;4179525;28;21409;-68
2022/08/04 04:49:26;;;;;;;10.10;3.50;;;;;;;20.44;62.75;100258.28;4159330;28;24068;-68
2022/08/04 04:52:07;;;;;;;10.97;4.00;;;;;;;20.52;62.45;100268.00;4170112;28;20642;-68
2022/08/04 04:54:48;;;;;;;9.33;3.90;;;;;;;20.59;62.12;100268.84;4167848;28;21591;-67
2022/08/04 04:57:17;;;;;;;7.93;3.50;;;;;;;20.73;61.98;100275.03;4156400;28;23008;-70
2022/08/04 04:59:48;;;;;;;15.00;4.47;;;;;;;20.79;62.00;100279.56;4163251;28;20241;-68
2022/08/04 05:02:36;;;;;;;8.53;3.43;;;;;;;20.74;61.97;100273.97;4165166;28;20285;-68
2022/08/04 05:05:21;;;;;;;11.70;3.80;;;;;;;20.93;61.36;100286.56;4160204;28;20397;-69
2022/08/04 05:08:01;;;;;;;8.20;3.63;;;;;;;20.97;60.89;100282.38;4168026;28;20327;-68
2022/08/04 05:10:56;;;;;;;11.23;3.57;;;;;;;21.06;60.89;100286.47;4180167;28;20243;-70
2022/08/04 05:13:25;;;;;;;7.00;4.03;;;;;;;21.16;60.58;100287.88;4172890;28;20229;-68
2022/08/04 05:16:18;;;;;;;9.13;4.00;;;;;;;21.31;60.57;100293.00;4182766;28;20227;-68
2022/08/04 05:18:48;;;;;;;7.43;3.73;;;;;;;21.38;59.83;100289.19;4156051;28;21000;-68
2022/08/04 05:21:38;;;;;;;18.10;4.20;;;;;;;21.43;59.52;100289.38;4174486;28;20263;-67
2022/08/04 05:24:08;;;;;;;13.87;3.97;;;;;;;21.60;58.48;100291.56;4166232;28;20238;-69
2022/08/04 05:26:39;;;;;;;9.23;3.77;;;;;;;21.71;58.23;100288.94;4158757;28;20353;-68
2022/08/04 05:29:08;;;;;;;8.67;3.97;;;;;;;21.76;57.67;100291.00;4146689;28;20254;-67
2022/08/04 05:31:38;;;;;;;13.03;4.40;;;;;;;21.67;57.98;100282.31;4174495;28;20231;-67
2022/08/04 05:34:08;;;;;;;11.17;3.93;;;;;;;21.79;57.95;100290.53;4174805;28;20300;-66
2022/08/04 05:36:44;;;;;;;6.37;3.50;;;;;;;22.01;57.74;100282.84;4157698;28;21502;-69
2022/08/04 05:39:14;;;;;;;15.30;4.10;;;;;;;22.02;57.17;100281.78;4160196;28;20265;-67
2022/08/04 05:41:42;;;;;;;11.53;4.03;;;;;;;22.21;56.57;100293.50;4169691;28;20703;-65
2022/08/04 05:44:15;;;;;;;11.33;3.80;;;;;;;22.39;56.34;100300.00;4167176;28;25549;-65
2022/08/04 05:46:47;;;;;;;11.87;3.50;;;;;;;22.55;56.35;100293.94;4156228;28;23474;-69
2022/08/04 05:49:22;;;;;;;7.40;3.63;;;;;;;22.69;54.92;100298.16;4156951;28;20655;-65
2022/08/04 05:51:50;;;;;;;7.97;3.40;;;;;;;22.77;54.34;100302.44;4174308;28;20234;-64
2022/08/04 05:54:17;;;;;;;12.53;3.50;;;;;;;22.97;54.72;100310.31;4172221;28;20365;-65
2022/08/04 05:56:44;;;;;;;10.03;4.00;;;;;;;23.25;53.81;100309.75;4154493;28;20246;-65
2022/08/04 05:59:11;;;;;;;10.47;3.23;;;;;;;23.90;50.99;100318.94;4164533;28;20229;-65
2022/08/04 06:01:39;;;;;;;8.80;3.30;;;;;;;24.68;47.74;100330.47;4158734;28;20238;-63
2022/08/04 06:04:25;;;;;;;7.50;3.30;;;;;;;25.46;45.54;100332.53;4173788;28;20234;-64
2022/08/04 06:06:53;;;;;;;8.20;3.27;;;;;;;26.32;43.21;100347.81;4159492;28;20940;-65
2022/08/04 06:09:20;;;;;;;7.40;3.13;;;;;;;27.23;40.76;100352.81;4167766;28;21263;-65
2022/08/04 06:11:47;;;;;;;12.50;3.67;;;;;;;28.27;38.23;100358.06;4166312;28;20243;-66
2022/08/04 06:14:40;;;;;;;15.77;3.63;;;;;;;28.98;36.25;100357.56;4184129;28;20912;-66
2022/08/04 06:17:08;;;;;;;7.50;3.57;;;;;;;30.05;35.08;100363.22;4178758;28;25411;-64
2022/08/04 06:19:55;;;;;;;10.43;3.60;;;;;;;30.84;32.94;100379.25;4182168;28;20339;-65
2022/08/04 06:22:43;;;;;;;8.20;3.70;;;;;;;30.95;32.64;100380.84;4182222;28;22789;-67
2022/08/04 06:25:14;;;;;;;10.80;3.67;;;;;;;32.18;30.56;100385.50;4175478;28;21236;-66
2022/08/04 06:27:42;;;;;;;8.60;3.63;;;;;;;32.84;29.38;100391.41;4165547;28;20379;-66
2022/08/04 06:30:13;;;;;;;12.53;3.93;;;;;;;32.64;29.79;100389.69;4165839;28;20302;-64
2022/08/04 06:32:46;;;;;;;10.05;3.85;;;;;;;33.37;28.42;100394.00;4179871;28;23563;-64
2022/08/04 06:35:16;;;;;;;11.45;3.58;;;;;;;33.26;28.35;100401.59;4184516;28;20244;-63
2022/08/04 06:37:44;;;;;;;19.23;4.03;;;;;;;32.71;29.06;100396.53;4184577;28;21200;-64
2022/08/04 06:40:13;;;;;;;11.18;4.22;;;;;;;32.93;29.77;100395.97;4188333;28;20237;-66
2022/08/04 06:43:03;;;;;;;14.32;3.72;;;;;;;32.01;30.10;100383.19;4230894;28;21538;-66
2022/08/04 06:45:33;;;;;;;18.58;3.70;;;;;;;32.18;30.70;100386.31;4200273;28;26156;-73
2022/08/04 06:48:04;;;;;;;19.70;4.13;;;;;;;33.34;29.00;100395.44;4180390;28;20344;-71
2022/08/04 06:50:36;;;;;;;22.48;4.03;;;;;;;32.78;29.14;100394.22;4199702;28;20242;-67
2022/08/04 06:53:23;;;;;;;13.13;3.95;;;;;;;33.95;27.34;100390.91;4236905;28;20840;-65
2022/08/04 06:55:50;;;;;;;16.38;4.05;;;;;;;34.70;25.71;100397.28;4216695;28;20321;-66
2022/08/04 06:58:19;;;;;;;12.52;4.13;;;;;;;34.63;26.95;100396.84;4197641;28;20248;-65
2022/08/04 07:00:47;;;;;;;14.48;4.38;;;;;;;35.72;25.84;100399.72;4211440;28;20414;-65
2022/08/04 07:03:15;;;;;;;13.18;3.60;;;;;;;36.13;24.17;100398.72;4203859;28;20247;-67
2022/08/04 07:05:42;;;;;;;16.52;4.20;;;;;;;36.12;24.86;100403.41;4241301;28;20241;-64
2022/08/04 07:08:10;;;;;;;9.40;3.28;;;;;;;35.49;24.20;100396.91;4211620;28;21552;-66
2022/08/04 07:10:37;;;;;;;10.07;2.90;;;;;;;36.30;23.50;100392.44;4181971;28;20611;-65
2022/08/04 07:13:06;;;;;;;10.90;3.53;;;;;;;35.99;24.04;100392.41;4213319;28;20232;-69
2022/08/04 07:15:34;;;;;;;13.07;3.35;;;;;;;36.78;23.02;100407.47;4197830;28;20320;-68
2022/08/04 07:18:03;;;;;;;6.88;3.00;;;;;;;37.39;22.24;100408.41;4255377;28;20259;-70
2022/08/04 07:20:31;;;;;;;10.93;3.45;;;;;;;37.48;21.68;100409.22;4278256;28;20619;-69
2022/08/04 07:23:03;;;;;;;10.38;3.10;;;;;;;38.18;21.41;100409.16;4219764;28;20327;-66
2022/08/04 07:25:30;;;;;;;5.45;2.80;;;;;;;38.80;20.11;100414.16;4187542;28;22412;-69
2022/08/04 07:28:21;;;;;;;9.43;3.22;;;;;;;37.34;21.83;100403.81;4178352;28;21395;-67
2022/08/04 07:30:48;;;;;;;7.53;2.97;;;;;;;37.92;20.27;100412.00;4181749;28;20230;-65
2022/08/04 07:33:16;;;;;;;7.57;2.90;;;;;;;37.55;20.54;100409.56;4190536;28;20238;-65
2022/08/04 07:35:43;;;;;;;8.73;2.88;;;;;;;38.08;20.60;100420.66;4180357;28;21106;-68
2022/08/04 07:38:30;;;;;;;11.40;2.70;;;;;;;37.77;20.84;100414.13;4184676;28;20240;-67
2022/08/04 07:40:58;;;;;;;14.38;3.10;;;;;;;38.19;21.11;100417.19;4189114;28;20257;-66
2022/08/04 07:43:26;;;;;;;12.18;3.10;;;;;;;37.98;20.20;100405.94;4180891;28;20235;-68
2022/08/04 07:45:53;;;;;;;12.10;3.30;;;;;;;36.73;21.69;100406.47;4174491;28;20734;-68
2022/08/04 07:48:21;;;;;;;4.35;2.80;;;;;;;35.43;23.82;100391.84;4194833;28;20300;-71
2022/08/04 07:50:49;;;;;;;11.20;2.90;;;;;;;34.38;25.38;100389.88;4171569;28;20318;-72
2022/08/04 07:53:17;;;;;;;8.38;3.00;;;;;;;33.85;25.08;100377.25;4157540;28;20364;-69
2022/08/04 07:56:03;;;;;;;9.05;2.80;;;;;;;32.80;26.28;100378.22;4167226;28;21690;-69
2022/08/04 07:58:30;;;;;;;8.43;2.90;;;;;;;32.31;27.08;100362.78;4164496;28;21051;-72
2022/08/04 08:00:57;;;;;;;8.38;2.22;;;;;;;31.68;28.74;100365.53;4164679;28;20477;-70
2022/08/04 08:03:25;;;;;;;8.65;2.78;;;;;;;31.09;29.33;100354.41;4153126;28;20691;-71
2022/08/04 08:05:52;;;;;;;6.05;2.33;;;;;;;30.92;29.55;100356.66;4172400;28;20398;-71
2022/08/04 08:08:39;;;;;;;9.07;2.58;;;;;;;30.69;29.84;100356.19;4176000;28;20238;-75
2022/08/04 08:11:06;;;;;;;8.55;2.83;;;;;;;30.98;30.32;100352.81;4182797;28;20238;-70
2022/08/04 08:13:33;;;;;;;5.88;2.50;;;;;;;31.39;30.12;100355.28;4205738;28;20414;-68
2022/08/04 08:16:01;;;;;;;8.05;2.40;;;;;;;31.21;29.20;100355.94;4194682;28;20222;-70
2022/08/04 08:18:28;;;;;;;12.40;2.50;;;;;;;31.47;29.49;100359.41;4166990;28;20246;-71
2022/08/04 08:20:55;;;;;;;4.65;2.20;;;;;;;31.76;29.25;100356.69;4173313;28;20884;-72
2022/08/04 08:23:23;;;;;;;6.82;2.50;;;;;;;31.91;28.89;100361.22;4165590;28;20806;-69
2022/08/04 08:25:50;;;;;;;7.25;2.45;;;;;;;31.72;29.63;100361.91;4173743;28;21004;-70
2022/08/04 08:28:17;;;;;;;6.40;2.25;;;;;;;31.39;28.62;100369.03;4169398;28;20242;-70
2022/08/04 08:30:44;;;;;;;6.28;2.40;;;;;;;31.24;28.42;100355.41;4199678;28;25500;-70
2022/08/04 08:33:18;;;;;;;7.47;2.30;;;;;;;31.45;29.04;100356.13;4210156;28;20252;-70
2022/08/04 08:36:00;;;;;;;4.32;2.00;;;;;;;31.38;28.88;100355.59;4193013;28;20237;-70
2022/08/04 08:38:56;;;;;;;8.82;2.20;;;;;;;31.47;28.50;100356.66;4179829;28;20230;-70
2022/08/04 08:42:04;;;;;;;4.78;2.08;;;;;;;31.29;28.20;100358.13;4182937;28;20242;-69
2022/08/04 08:45:02;;;;;;;6.95;1.95;;;;;;;30.79;28.73;100349.00;4161642;28;22192;-68
2022/08/04 08:47:48;;;;;;;3.92;2.10;;;;;;;30.18;29.69;100358.25;4184187;28;20280;-70
2022/08/04 08:50:50;;;;;;;6.63;2.10;;;;;;;30.32;29.96;100355.78;4181825;28;21719;-69
2022/08/04 08:53:46;;;;;;;7.93;3.50;;;;;;;29.99;30.95;100347.88;4173510;28;22104;-69
2022/08/04 08:56:31;;;;;;;4.30;2.25;;;;;;;29.98;31.39;100345.38;4174195;28;20239;-69
2022/08/04 08:59:26;;;;;;;8.55;2.47;;;;;;;30.48;30.47;100351.88;4174624;28;20259;-71
2022/08/04 09:02:06;;;;;;;8.10;2.25;;;;;;;30.67;30.47;100352.94;4172235;28;21249;-69
2022/08/04 09:04:47;;;;;;;7.40;2.13;;;;;;;30.54;29.71;100352.69;4167721;28;20245;-69
2022/08/04 09:07:52;;;;;;;7.10;2.10;;;;;;;29.99;30.36;100353.34;4154720;28;21994;-70
2022/08/04 09:10:27;;;;;;;4.68;2.00;;;;;;;29.84;30.13;100343.19;4173818;28;20387;-69
2022/08/04 09:13:04;;;;;;;4.40;1.92;;;;;;;29.50;30.32;100344.81;4170471;28;22113;-69
2022/08/04 09:15:30;;;;;;;3.08;1.80;;;;;;;29.48;30.77;100341.50;4176201;28;20294;-67
2022/08/04 09:18:06;;;;;;;6.93;1.92;;;;;;;29.46;31.20;100339.88;4188962;28;20238;-69
2022/08/04 09:20:45;;;;;;;3.73;1.73;;;;;;;29.49;31.09;100344.00;4168806;28;20522;-69
2022/08/04 09:23:19;;;;;;;7.93;2.35;;;;;;;29.53;31.43;100333.31;4159178;28;21783;-71
2022/08/04 09:26:28;;;;;;;3.70;1.80;;;;;;;29.60;31.67;100339.34;4161105;28;20661;-76
2022/08/04 09:29:06;;;;;;;6.57;2.40;;;;;;;29.79;31.16;100342.38;4168281;28;20246;-74
2022/08/04 09:31:38;;;;;;;6.88;2.33;;;;;;;29.96;32.51;100336.59;4181863;28;20233;-74
2022/08/04 09:34:44;;;;;;;9.82;2.05;;;;;;;30.15;31.83;100337.66;4171452;28;20620;-74
2022/08/04 09:37:27;;;;;;;10.02;2.20;;;;;;;29.96;31.57;100337.41;4177726;28;20238;-70
2022/08/04 09:40:03;;;;;;;6.68;2.00;;;;;;;29.83;31.78;100340.75;4173594;28;20238;-72
2022/08/04 09:42:40;;;;;;;5.78;2.83;;;;;;;29.91;31.68;100347.59;4170138;28;20238;-69
2022/08/04 09:45:23;;;;;;;5.60;2.13;;;;;;;29.68;31.18;100341.56;4156682;28;21330;-69
2022/08/04 09:47:59;;;;;;;6.90;2.80;;;;;;;29.97;31.28;100340.97;4171654;28;20251;-71
2022/08/04 09:50:33;;;;;;;6.47;2.55;;;;;;;29.99;31.12;100347.03;4198154;28;25602;-67
2022/08/04 09:54:01;;;;;;;6.80;2.40;;;;;;;29.85;30.65;100339.38;4173212;28;20308;-68
2022/08/04 09:56:57;;;;;;;7.75;2.35;;;;;;;29.72;31.73;100333.63;4156475;28;25480;-64
2022/08/04 09:59:29;;;;;;;5.13;1.85;;;;;;;29.76;31.28;100332.78;4197038;28;20245;-67
2022/08/04 10:01:58;;;;;;;3.95;2.10;;;;;;;29.92;31.27;100333.56;4176338;28;20238;-69
2022/08/04 10:04:28;;;;;;;12.25;2.20;;;;;;;29.98;30.98;100328.94;4161726;28;20503;-68
2022/08/04 10:07:20;;;;;;;3.60;2.03;;;;;;;29.77;32.05;100331.69;4167016;28;20245;-65
2022/08/04 10:10:08;;;;;;;5.55;2.70;;;;;;;29.53;32.70;100328.66;4191350;28;24010;-71
2022/08/04 10:12:49;;;;;;;7.18;2.58;;;;;;;29.50;33.20;100328.34;4188729;28;20233;-69
2022/08/04 10:15:20;;;;;;;12.35;2.63;;;;;;;29.39;33.57;100322.88;4183315;28;20376;-70
2022/08/04 10:18:06;;;;;;;10.50;2.33;;;;;;;29.31;32.95;100328.06;4175898;28;20235;-68
2022/08/04 10:20:48;;;;;;;6.13;3.00;;;;;;;29.34;33.20;100322.88;4167395;28;20234;-70
2022/08/04 10:23:43;;;;;;;5.55;2.50;;;;;;;29.48;34.19;100316.84;4172636;28;20239;-72
2022/08/04 10:26:31;;;;;;;9.90;2.80;;;;;;;29.42;31.75;100316.84;4180331;28;22632;-70
2022/08/04 10:29:09;;;;;;;5.45;2.50;;;;;;;29.60;31.68;100320.97;4183302;28;20235;-71
2022/08/04 10:31:43;;;;;;;7.20;2.45;;;;;;;29.73;32.10;100310.56;4177350;28;20238;-71
2022/08/04 10:34:23;;;;;;;5.30;2.63;;;;;;;29.58;32.38;100314.13;4160098;28;22043;-70
2022/08/04 10:37:03;;;;;;;4.38;2.15;;;;;;;29.71;32.14;100308.09;4190394;28;20242;-68
2022/08/04 10:39:39;;;;;;;3.60;2.17;;;;;;;29.78;31.42;100311.41;4169726;28;20237;-76
2022/08/04 10:42:17;;;;;;;5.65;2.22;;;;;;;29.88;32.78;100300.41;4168436;28;21190;-70
2022/08/04 10:45:14;;;;;;;7.97;2.72;;;;;;;29.66;32.95;100302.56;4176363;28;21446;-70
2022/08/04 10:48:12;;;;;;;6.20;2.60;;;;;;;29.49;32.93;100305.59;4178442;28;20234;-72
2022/08/04 10:50:47;;;;;;;6.68;2.58;;;;;;;29.43;33.52;100295.72;4151133;28;20242;-73
2022/08/04 10:53:19;;;;;;;4.43;2.53;;;;;;;29.35;34.07;100294.34;4163861;28;20451;-69
2022/08/04 10:55:51;;;;;;;10.93;2.90;;;;;;;29.40;32.35;100299.84;4161046;28;20792;-69
2022/08/04 10:58:39;;;;;;;6.07;2.53;;;;;;;29.23;32.16;100291.06;4171634;28;25872;-68
2022/08/04 11:01:21;;;;;;;6.07;2.70;;;;;;;29.02;32.59;100285.53;4153120;28;20253;-69
2022/08/04 11:04:30;;;;;;;6.00;2.97;;;;;;;29.19;33.71;100284.47;4167218;28;20260;-68
2022/08/04 11:06:58;;;;;;;5.13;2.65;;;;;;;29.24;33.44;100289.97;4167172;28;20485;-72
2022/08/04 11:09:25;;;;;;;9.07;2.67;;;;;;;29.39;32.81;100283.69;4173536;28;20293;-69
2022/08/04 11:11:55;;;;;;;5.82;2.90;;;;;;;29.37;32.68;100283.94;4175667;28;20876;-70
2022/08/04 11:14:36;;;;;;;6.32;3.08;;;;;;;29.13;32.80;100282.84;4173261;28;22104;-71
2022/08/04 11:17:07;;;;;;;8.23;3.17;;;;;;;29.00;33.35;100284.16;4177738;28;20239;-72
2022/08/04 11:19:45;;;;;;;9.32;3.00;;;;;;;29.17;33.40;100278.44;4184930;28;20398;-71
2022/08/04 11:22:24;;;;;;;8.50;2.80;;;;;;;29.23;32.69;100280.91;4180785;28;20387;-74
2022/08/04 11:25:04;;;;;;;7.95;4.00;;;;;;;29.46;31.34;100287.78;4180023;28;20246;-72
2022/08/04 11:27:39;;;;;;;6.05;2.72;;;;;;;29.34;31.71;100281.75;4168610;28;25215;-71
2022/08/04 11:30:08;;;;;;;6.43;3.00;;;;;;;29.45;33.22;100272.44;4160447;28;20245;-72
2022/08/04 11:32:45;;;;;;;6.65;2.92;;;;;;;29.73;32.98;100278.47;4191656;28;20231;-67
2022/08/04 11:35:18;;;;;;;5.00;2.70;;;;;;;30.11;30.72;100284.44;4158389;28;21171;-67
2022/08/04 11:37:49;;;;;;;8.55;3.08;;;;;;;30.21;30.57;100281.66;4164789;28;20294;-67
2022/08/04 11:40:22;;;;;;;7.43;3.10;;;;;;;30.27;31.96;100283.31;4190512;28;22648;-69
2022/08/04 11:43:01;;;;;;;10.68;2.85;;;;;;;30.23;31.20;100282.19;4156573;28;20360;-74
2022/08/04 11:45:36;;;;;;;7.03;2.70;;;;;;;30.03;31.14;100282.25;4171537;28;20239;-71
2022/08/04 11:48:09;;;;;;;6.63;2.80;;;;;;;30.11;31.85;100273.47;4171007;28;22190;-72
2022/08/04 11:50:41;;;;;;;6.07;3.38;;;;;;;30.13;30.68;100276.72;4165382;28;20238;-72
2022/08/04 11:53:14;;;;;;;6.57;3.77;;;;;;;30.17;30.70;100272.34;4171262;28;22774;-73
2022/08/04 11:55:41;;;;;;;3.88;3.13;;;;;;;30.20;31.45;100276.44;4171479;28;20238;-69
2022/08/04 11:58:29;;;;;;;4.88;3.00;;;;;;;30.54;31.98;100270.31;4179691;28;20278;-74
2022/08/04 12:01:14;;;;;;;5.63;2.90;;;;;;;30.58;30.70;100272.22;4192268;28;20313;-72
2022/08/04 12:04:04;;;;;;;5.65;2.80;;;;;;;30.48;31.52;100269.50;4190113;28;25613;-74
2022/08/04 12:07:09;;;;;;;3.38;2.70;;;;;;;30.54;29.71;100268.38;4178106;28;21190;-73
2022/08/04 12:10:21;;;;;;;5.32;2.70;;;;;;;30.44;29.93;100271.19;4173483;28;20301;-73
2022/08/04 12:13:27;;;;;;;4.07;2.80;;;;;;;30.49;29.90;100273.91;4189676;28;20222;-73
2022/08/04 12:16:04;;;;;;;11.25;3.00;;;;;;;30.38;31.25;100275.03;4177976;28;20742;-77
2022/08/04 12:18:39;;;;;;;6.78;2.50;;;;;;;30.24;31.19;100266.53;4173343;28;20241;-73